createdAt,value
2022-07-27T11:50:11.505Z,30.80
2022-07-27T11:52:39.676Z,29.90
2022-07-27T11:55:09.330Z,29.10
2022-07-27T11:57:41.720Z,28.80
2022-07-27T12:07:37.621Z,23.80
2022-07-27T12:10:07.898Z,23.20
2022-07-27T12:12:37.979Z,22.60
2022-07-27T12:15:44.215Z,23.00
2022-07-27T12:18:05.876Z,23.20
2022-07-27T12:20:36.511Z,24.10
2022-07-27T12:23:08.105Z,24.30
2022-07-27T12:25:36.840Z,23.70
2022-07-27T12:28:25.608Z,23.30
2022-07-27T12:30:54.025Z,23.20
2022-07-27T12:33:29.918Z,23.10
2022-07-27T12:35:59.122Z,22.90
2022-07-27T12:38:38.989Z,22.80
2022-07-27T12:41:07.191Z,22.90
2022-07-27T12:43:35.193Z,22.90
2022-07-27T12:46:13.226Z,23.00
2022-07-27T12:48:43.407Z,23.20
2022-07-27T12:51:12.252Z,22.90
2022-07-27T12:53:41.694Z,22.70
2022-07-27T12:56:10.982Z,22.70
2022-07-27T12:58:58.119Z,23.40
2022-07-27T13:01:26.266Z,24.30
2022-07-27T13:03:54.670Z,24.10
2022-07-27T13:06:26.735Z,24.20
2022-07-27T13:08:57.542Z,24.30
2022-07-27T13:11:26.664Z,23.80
2022-07-27T13:13:54.772Z,23.50
2022-07-27T13:16:22.856Z,23.40
2022-07-27T13:18:50.928Z,24.30
2022-07-27T13:21:19.497Z,25.30
2022-07-27T13:23:57.983Z,24.80
2022-07-27T13:26:29.679Z,24.50
2022-07-27T13:28:57.779Z,24.30
2022-07-27T13:31:25.811Z,24.60
2022-07-27T13:33:53.910Z,24.30
2022-07-27T13:36:22.842Z,24.30
2022-07-27T13:38:52.892Z,24.00
2022-07-27T13:41:23.693Z,23.90
2022-07-27T13:43:53.220Z,23.40
2022-07-27T13:46:22.003Z,23.50
2022-07-27T13:48:50.266Z,23.70
2022-07-27T13:51:18.438Z,23.90
2022-07-27T13:53:46.485Z,24.40
2022-07-27T13:56:14.516Z,24.40
2022-07-27T13:58:44.288Z,24.10
2022-07-27T14:01:14.111Z,24.00
2022-07-27T14:03:42.280Z,24.10
2022-07-27T14:06:13.382Z,24.80
2022-07-27T14:08:41.410Z,24.60
2022-07-27T14:11:09.490Z,23.70
2022-07-27T14:13:37.654Z,23.90
2022-07-27T14:16:07.222Z,24.30
2022-07-27T14:18:36.996Z,24.00
2022-07-27T14:21:09.364Z,24.00
2022-07-27T14:23:37.903Z,24.10
2022-07-27T14:26:07.944Z,23.80
2022-07-27T14:28:36.841Z,23.90
2022-07-27T14:31:10.117Z,23.90
2022-07-27T14:33:39.962Z,23.90
2022-07-27T14:36:10.076Z,24.10
2022-07-27T14:38:39.408Z,24.10
2022-07-27T14:41:08.014Z,23.70
2022-07-27T14:43:39.414Z,23.60
2022-07-27T14:46:07.492Z,23.80
2022-07-27T14:49:05.137Z,23.80
2022-07-27T14:51:25.047Z,23.80
2022-07-27T14:53:55.642Z,23.90
2022-07-27T14:56:25.852Z,24.10
2022-07-27T14:58:53.970Z,24.00
2022-07-27T15:01:25.192Z,23.70
2022-07-27T15:03:55.493Z,24.30
2022-07-27T15:06:26.295Z,24.70
2022-07-27T15:08:56.284Z,25.10
2022-07-27T15:11:24.518Z,25.10
2022-07-27T15:13:57.708Z,25.10
2022-07-27T15:16:25.799Z,25.00
2022-07-27T15:18:53.912Z,25.00
2022-07-27T15:21:25.363Z,24.60
2022-07-27T15:23:56.273Z,24.50
2022-07-27T15:26:24.430Z,24.70
2022-07-27T15:28:52.847Z,24.90
2022-07-27T15:31:20.870Z,25.20
2022-07-27T15:33:50.894Z,24.70
2022-07-27T15:36:31.893Z,24.60
2022-07-27T15:39:05.496Z,24.50
2022-07-27T15:41:33.795Z,24.50
2022-07-27T15:44:02.115Z,24.70
2022-07-27T15:46:31.990Z,24.70
2022-07-27T15:49:00.502Z,25.10
2022-07-27T15:51:30.084Z,25.30
2022-07-27T15:53:58.501Z,25.10
2022-07-27T15:56:26.957Z,24.90
2022-07-27T15:58:54.975Z,25.00
2022-07-27T16:01:23.381Z,24.80
2022-07-27T16:04:03.481Z,24.70
2022-07-27T16:06:38.556Z,24.70
2022-07-27T16:09:09.192Z,24.90
2022-07-27T16:11:38.262Z,25.00
2022-07-27T16:14:06.254Z,24.80
2022-07-27T16:16:34.530Z,24.90
2022-07-27T16:19:12.561Z,24.80
2022-07-27T16:21:54.616Z,25.40
2022-07-27T16:24:24.561Z,25.60
2022-07-27T16:26:55.082Z,25.60
2022-07-27T16:29:23.831Z,25.30
2022-07-27T16:31:54.812Z,25.40
2022-07-27T16:34:22.970Z,25.50
2022-07-27T16:36:52.787Z,25.50
2022-07-27T16:39:21.268Z,25.70
2022-07-27T16:41:50.400Z,25.60
2022-07-27T16:44:20.047Z,25.40
2022-07-27T16:46:49.434Z,25.10
2022-07-27T16:49:19.517Z,25.60
2022-07-27T16:51:48.786Z,25.40
2022-07-27T16:54:18.218Z,26.10
2022-07-27T16:56:46.425Z,26.60
2022-07-27T16:59:14.809Z,27.00
2022-07-27T17:01:43.231Z,26.60
2022-07-27T17:04:11.410Z,26.30
2022-07-27T17:06:39.462Z,26.40
2022-07-27T17:09:07.419Z,26.50
2022-07-27T17:11:37.472Z,26.50
2022-07-27T17:14:07.020Z,26.80
2022-07-27T17:16:36.195Z,26.70
2022-07-27T17:19:04.356Z,27.30
2022-07-27T17:21:32.457Z,27.00
2022-07-27T17:24:00.461Z,26.40
2022-07-27T17:26:28.583Z,25.80
2022-07-27T17:28:59.344Z,26.20
2022-07-27T17:31:28.333Z,25.80
2022-07-27T17:33:56.854Z,25.80
2022-07-27T17:36:26.107Z,26.00
2022-07-27T17:38:54.137Z,26.10
2022-07-27T17:41:24.938Z,26.10
2022-07-27T17:43:53.952Z,26.20
2022-07-27T17:46:25.101Z,25.60
2022-07-27T17:48:54.445Z,26.20
2022-07-27T17:51:25.298Z,25.50
2022-07-27T17:53:53.501Z,25.10
2022-07-27T17:56:21.649Z,24.90
2022-07-27T17:58:49.732Z,24.60
2022-07-27T18:01:17.774Z,23.90
2022-07-27T18:04:07.376Z,22.90
2022-07-27T18:06:35.589Z,22.70
2022-07-27T18:09:07.082Z,22.50
2022-07-27T18:11:35.231Z,22.60
2022-07-27T18:14:03.205Z,22.50
2022-07-27T18:16:35.114Z,22.30
2022-07-27T18:19:09.442Z,22.10
2022-07-27T18:21:38.167Z,22.10
2022-07-27T18:24:06.727Z,22.10
2022-07-27T18:26:38.423Z,21.90
2022-07-27T18:29:07.199Z,21.80
2022-07-27T18:31:35.448Z,21.80
2022-07-27T18:34:05.873Z,21.70
2022-07-27T18:36:38.873Z,21.50
2022-07-27T18:39:07.070Z,21.40
2022-07-27T18:41:35.881Z,21.30
2022-07-27T18:44:03.876Z,21.20
2022-07-27T18:46:32.041Z,21.20
2022-07-27T18:49:00.392Z,21.20
2022-07-27T18:51:30.616Z,21.10
2022-07-27T18:54:00.412Z,21.00
2022-07-27T18:56:28.430Z,20.70
2022-07-27T18:58:56.452Z,20.50
2022-07-27T19:01:24.644Z,20.50
2022-07-27T19:03:52.806Z,20.40
2022-07-27T19:06:20.880Z,20.30
2022-07-27T19:08:50.267Z,20.30
2022-07-27T19:11:19.743Z,20.20
2022-07-27T19:13:47.863Z,20.00
2022-07-27T19:16:15.944Z,20.00
2022-07-27T19:18:44.021Z,19.90
2022-07-27T19:21:12.076Z,19.90
2022-07-27T19:23:40.150Z,20.00
2022-07-27T19:26:10.096Z,19.80
2022-07-27T19:28:41.355Z,19.60
2022-07-27T19:31:21.747Z,19.60
2022-07-27T19:33:51.069Z,19.60
2022-07-27T19:36:19.179Z,19.50
2022-07-27T19:38:47.214Z,19.30
2022-07-27T19:41:15.289Z,19.20
2022-07-27T19:43:44.763Z,19.10
2022-07-27T19:46:12.817Z,19.00
2022-07-27T19:48:41.033Z,18.90
2022-07-27T19:51:09.168Z,18.70
2022-07-27T19:53:38.499Z,18.60
2022-07-27T19:56:07.099Z,18.80
2022-07-27T19:58:35.123Z,18.70
2022-07-27T20:01:04.863Z,18.60
2022-07-27T20:03:54.811Z,18.50
2022-07-27T20:06:24.104Z,18.60
2022-07-27T20:08:56.045Z,18.60
2022-07-27T20:11:24.312Z,18.50
2022-07-27T20:13:52.596Z,18.50
2022-07-27T20:16:22.170Z,18.60
2022-07-27T20:18:50.547Z,18.40
2022-07-27T20:21:22.713Z,18.40
2022-07-27T20:23:51.868Z,18.50
2022-07-27T20:26:20.147Z,18.40
2022-07-27T20:28:49.768Z,18.30
2022-07-27T20:31:18.229Z,18.30
2022-07-27T20:33:50.834Z,18.20
2022-07-27T20:36:19.144Z,18.00
2022-07-27T20:38:47.121Z,18.00
2022-07-27T20:41:15.291Z,17.80
2022-07-27T20:43:43.331Z,17.70
2022-07-27T20:46:11.435Z,17.70
2022-07-27T20:48:42.103Z,17.60
2022-07-27T20:51:11.526Z,17.50
2022-07-27T20:53:39.809Z,17.50
2022-07-27T20:56:08.269Z,17.60
2022-07-27T20:58:36.355Z,17.60
2022-07-27T21:01:07.238Z,17.60
2022-07-27T21:03:36.147Z,17.80
2022-07-27T21:06:05.055Z,18.00
2022-07-27T21:08:34.769Z,17.80
2022-07-27T21:11:04.238Z,17.50
2022-07-27T21:13:32.621Z,17.40
2022-07-27T21:16:00.858Z,17.50
2022-07-27T21:18:29.063Z,17.50
2022-07-27T21:20:57.803Z,17.80
2022-07-27T21:23:43.332Z,17.80
2022-07-27T21:26:15.430Z,17.90
2022-07-27T21:28:46.376Z,17.80
2022-07-27T21:31:14.752Z,17.50
2022-07-27T21:33:42.887Z,17.60
2022-07-27T21:36:11.099Z,17.80
2022-07-27T21:38:39.139Z,17.60
2022-07-27T21:41:07.399Z,17.70
2022-07-27T21:43:37.117Z,17.80
2022-07-27T21:46:05.193Z,17.70
2022-07-27T21:48:34.040Z,17.70
2022-07-27T21:51:02.305Z,17.70
2022-07-27T21:53:30.626Z,17.80
2022-07-27T21:55:59.330Z,17.80
2022-07-27T21:58:27.764Z,17.60
2022-07-27T22:00:58.054Z,17.50
2022-07-27T22:03:26.216Z,17.60
2022-07-27T22:05:54.299Z,17.60
2022-07-27T22:08:24.173Z,17.80
2022-07-27T22:10:55.476Z,17.70
2022-07-27T22:13:23.619Z,17.60
2022-07-27T22:16:04.721Z,17.60
2022-07-27T22:18:33.013Z,17.50
2022-07-27T22:21:01.307Z,17.60
2022-07-27T22:23:29.685Z,17.40
2022-07-27T22:25:58.160Z,17.40
2022-07-27T22:28:26.474Z,17.40
2022-07-27T22:31:00.118Z,17.40
2022-07-27T22:33:44.897Z,17.50
2022-07-27T22:36:13.691Z,17.40
2022-07-27T22:38:42.029Z,17.40
2022-07-27T22:41:10.221Z,17.50
2022-07-27T22:43:38.937Z,17.40
2022-07-27T22:46:08.747Z,17.50
2022-07-27T22:48:37.008Z,17.20
2022-07-27T22:51:05.564Z,17.20
2022-07-27T22:53:33.872Z,17.10
2022-07-27T22:56:01.843Z,17.00
2022-07-27T22:58:29.981Z,16.90
2022-07-27T23:00:59.774Z,17.00
2022-07-27T23:03:29.906Z,17.00
2022-07-27T23:06:00.271Z,17.00
2022-07-27T23:08:28.678Z,17.10
2022-07-27T23:10:56.964Z,16.90
2022-07-27T23:13:25.132Z,17.10
2022-07-27T23:16:06.181Z,16.90
2022-07-27T23:18:35.748Z,16.90
2022-07-27T23:21:03.898Z,17.00
2022-07-27T23:23:35.851Z,16.90
2022-07-27T23:26:09.955Z,16.80
2022-07-27T23:28:37.984Z,16.80
2022-07-27T23:31:07.063Z,16.80
2022-07-27T23:33:36.632Z,16.70
2022-07-27T23:36:06.692Z,16.60
2022-07-27T23:38:36.667Z,16.60
2022-07-27T23:41:04.993Z,16.70
2022-07-27T23:43:35.911Z,16.50
2022-07-27T23:46:04.235Z,16.60
2022-07-27T23:48:32.412Z,16.60
2022-07-27T23:51:02.141Z,16.50
2022-07-27T23:53:31.741Z,16.50
2022-07-27T23:56:00.409Z,16.50
2022-07-27T23:58:29.744Z,16.50
